HomeShort term forecast

Short term forecast

Graphical weather forecast for the next 48 hours for Montreal:
Short term forecast
This weather forecast is automatically refreshed every 3 hours.

Hourly Experimental Forecast for the next 48 hours

Overall summary: Foggy this evening and breezy tomorrow morning.

 Date & Hour   Temp   Feel   Baro   Hum   Speed & Bearing   Precipitation   Visibility   Cloud cover   Conditions 
 19/01/2018 - 11:00  -2.9°C  -7.6°C  1011.9 hPa  88%  13.5 km/h   --  11.6km  93%  Mostly Cloudy 
 19/01/2018 - 12:00  -2.2°C  -7.1°C  1011.2 hPa  86%  15.2 km/h   0.03 mm/h  11.5km  89%  Mostly Cloudy 
 19/01/2018 - 13:00  -1.6°C  -6.6°C  1010.6 hPa  86%  16.2 km/h   0.03 mm/h  11.5km  89%  Mostly Cloudy 
 19/01/2018 - 14:00  -1.2°C  -6.1°C  1010.4 hPa  85%  15.7 km/h   0.03 mm/h  12.7km  93%  Mostly Cloudy 
 19/01/2018 - 15:00  -1.0°C  -5.6°C  1010.5 hPa  85%  14.6 km/h   0.02 mm/h  14.0km  97%  Overcast 
 19/01/2018 - 16:00  -0.7°C  -5.1°C  1010.5 hPa  83%  14.0 km/h   0.02 mm/h  13.6km  100%  Overcast 
 19/01/2018 - 17:00  -1.0°C  -5.6°C  1010.1 hPa  83%  14.9 km/h   0.02 mm/h  9.2km  99%  Overcast 
 19/01/2018 - 18:00  -1.4°C  -6.4°C  1009.5 hPa  85%  16.3 km/h   0.03 mm/h  3.1km  98%  Foggy 
 19/01/2018 - 19:00  -1.6°C  -6.8°C  1008.9 hPa  85%  17.5 km/h   0.05 mm/h  0.7km  98%  Foggy 
 19/01/2018 - 20:00  -1.7°C  -7.1°C  1008.2 hPa  85%  17.9 km/h   0.03 mm/h  5.9km  99%  Overcast 
 19/01/2018 - 21:00  -1.6°C  -7.0°C  1007.4 hPa  83%  17.9 km/h   0.02 mm/h  14.8km  99%  Overcast 
 19/01/2018 - 22:00  -1.4°C  -6.7°C  1006.6 hPa  82%  18.2 km/h   0.02 mm/h  16.1km  100%  Overcast 
 19/01/2018 - 23:00  -1.1°C  -6.4°C  1005.6 hPa  81%  18.8 km/h   0.04 mm/h  16.1km  100%  Overcast 
 20/01/2018 - 00:00  -0.7°C  -6.0°C  1004.7 hPa  81%  19.5 km/h   0.11 mm/h  16.1km  100%  Overcast 
 20/01/2018 - 01:00  -0.3°C  -5.7°C  1003.7 hPa  80%  20.6 km/h   0.18 mm/h  16.1km  100%  Overcast 
 20/01/2018 - 02:00  0.2°C  -5.3°C  1002.6 hPa  80%  22.0 km/h   0.17 mm/h  16.1km  100%  Overcast 
 20/01/2018 - 03:00  0.6°C  -5.0°C  1001.6 hPa  80%  23.8 km/h   0.15 mm/h  16.1km  100%  Overcast 
 20/01/2018 - 04:00  1.0°C  -4.7°C  1000.8 hPa  80%  26.1 km/h   0.15 mm/h  16.1km  100%  Breezy and Overcast 
 20/01/2018 - 05:00  1.1°C  -4.9°C  1000.4 hPa  80%  29.0 km/h   0.11 mm/h  16.1km  100%  Breezy and Overcast 
 20/01/2018 - 06:00  1.1°C  -5.2°C  1000.3 hPa  79%  32.1 km/h   0.06 mm/h  16.1km  100%  Breezy and Overcast 
 20/01/2018 - 07:00  1.1°C  -5.4°C  1000.5 hPa  79%  34.5 km/h   0.04 mm/h  16.1km  100%  Windy and Overcast 
 20/01/2018 - 08:00  1.1°C  -5.5°C  1001.1 hPa  80%  35.7 km/h   0.02 mm/h  16.1km  97%  Windy and Overcast 
 20/01/2018 - 09:00  1.1°C  -5.6°C  1002.0 hPa  82%  36.2 km/h   0.02 mm/h  16.1km  94%  Windy and Overcast 
 20/01/2018 - 10:00  1.2°C  -5.5°C  1002.8 hPa  83%  36.1 km/h   0.02 mm/h  16.1km  93%  Breezy and Mostly Cloudy 
 20/01/2018 - 11:00  1.4°C  -5.1°C  1003.2 hPa  85%  35.6 km/h   0.02 mm/h  16.1km  93%  Breezy and Mostly Cloudy 
 20/01/2018 - 12:00  1.8°C  -4.5°C  1003.4 hPa  86%  34.7 km/h   0.02 mm/h  16.1km  95%  Breezy and Overcast 
 20/01/2018 - 13:00  2.2°C  -3.9°C  1003.8 hPa  87%  33.5 km/h   0.03 mm/h  16.1km  95%  Breezy and Overcast 
 20/01/2018 - 14:00  2.6°C  -3.2°C  1004.4 hPa  86%  32.1 km/h   0.03 mm/h  16.1km  94%  Breezy and Overcast 
 20/01/2018 - 15:00  3.0°C  -2.7°C  1005.1 hPa  85%  30.6 km/h   0.03 mm/h  16.1km  93%  Breezy and Mostly Cloudy 
 20/01/2018 - 16:00  3.2°C  -2.2°C  1006.0 hPa  84%  29.1 km/h   0.03 mm/h  16.1km  92%  Breezy and Mostly Cloudy 
 20/01/2018 - 17:00  3.3°C  -1.9°C  1007.2 hPa  83%  27.8 km/h   0.03 mm/h  16.1km  88%  Breezy and Mostly Cloudy 
 20/01/2018 - 18:00  3.2°C  -1.9°C  1008.6 hPa  83%  26.5 km/h   0.03 mm/h  16.1km  83%  Mostly Cloudy 
 20/01/2018 - 19:00  2.8°C  -2.3°C  1009.8 hPa  84%  24.9 km/h   0.03 mm/h  16.1km  79%  Mostly Cloudy 
 20/01/2018 - 20:00  2.2°C  -2.7°C  1010.9 hPa  86%  22.4 km/h   0.02 mm/h  16.1km  79%  Mostly Cloudy 
 20/01/2018 - 21:00  1.5°C  -3.3°C  1011.9 hPa  89%  19.3 km/h   0.02 mm/h  11.2km  80%  Mostly Cloudy 
 20/01/2018 - 22:00  0.8°C  -3.7°C  1012.8 hPa  89%  16.7 km/h   0.02 mm/h  5.2km  82%  Mostly Cloudy 
 20/01/2018 - 23:00  0.1°C  -4.2°C  1013.6 hPa  88%  14.4 km/h   0.02 mm/h  2.5km  84%  Foggy 
 21/01/2018 - 00:00  -0.5°C  -4.6°C  1014.3 hPa  86%  12.5 km/h   0.02 mm/h  1.5km  86%  Foggy 
 21/01/2018 - 01:00  -1.1°C  -4.8°C  1015.0 hPa  83%  10.6 km/h   0.02 mm/h  0.9km  89%  Foggy 
 21/01/2018 - 02:00  -1.7°C  -4.8°C  1015.5 hPa  81%  8.5 km/h   0.02 mm/h  0.6km  90%  Foggy 
 21/01/2018 - 03:00  -2.2°C  -4.8°C  1016.0 hPa  79%  6.5 km/h   0.03 mm/h  0.6km  92%  Foggy 
 21/01/2018 - 04:00  -2.7°C  -4.6°C  1016.6 hPa  77%  4.9 km/h   0.04 mm/h  0.6km  92%  Foggy 
 21/01/2018 - 05:00  -3.2°C  -3.2°C  1017.3 hPa  77%  4.2 km/h   0.05 mm/h  0.6km  92%  Foggy 
 21/01/2018 - 06:00  -3.6°C  -3.6°C  1018.2 hPa  77%  4.0 km/h   0.05 mm/h  0.6km  91%  Foggy 
 21/01/2018 - 07:00  -3.9°C  -3.9°C  1018.9 hPa  77%  4.1 km/h   0.05 mm/h  0.6km  91%  Foggy 
 21/01/2018 - 08:00  -3.9°C  -3.9°C  1019.5 hPa  78%  4.4 km/h   0.06 mm/h  2.7km  89%  Foggy 
 21/01/2018 - 09:00  -3.7°C  -5.7°C  1019.9 hPa  78%  4.9 km/h   0.07 mm/h  5.8km  87%  Mostly Cloudy 
 21/01/2018 - 10:00  -3.5°C  -3.5°C  1020.2 hPa  79%  4.8 km/h   0.08 mm/h  9.6km  86%  Mostly Cloudy 
Test

 

Past weather and reports

Past weatherFind in this section the past weather conditions, weather archive, graphics, reports and statistics.

Current conditions

Current weather condition for MontrealAll you need to know about the current weather conditions for Montreal. Weather data is updated every 10 minutes.

Weather forecast

Current Montreal weatherSince 2004, celinium.com website has provided accurate weather forecast for Montreal's island.